createdAt,value
2019-01-21T00:00:42.880Z,0.00
2019-01-21T00:02:40.854Z,0.00
2019-01-21T00:03:46.260Z,0.00
2019-01-21T00:05:44.646Z,0.00
2019-01-21T00:06:50.165Z,0.00
2019-01-21T00:08:48.572Z,0.00
2019-01-21T00:09:54.071Z,0.00
2019-01-21T00:11:52.463Z,0.00
2019-01-21T00:12:57.984Z,0.00
2019-01-21T00:14:56.387Z,0.00
2019-01-21T00:16:01.893Z,0.00
2019-01-21T00:18:00.284Z,0.00
2019-01-21T00:19:05.791Z,0.00
2019-01-21T00:21:04.175Z,0.00
2019-01-21T00:22:09.696Z,0.00
2019-01-21T00:24:08.096Z,0.00
2019-01-21T00:25:13.603Z,0.00
2019-01-21T00:27:12.000Z,0.00
2019-01-21T00:28:17.512Z,0.00
2019-01-21T00:30:16.002Z,0.00
2019-01-21T00:31:21.413Z,0.00
2019-01-21T00:33:19.815Z,0.00
2019-01-21T00:34:25.315Z,0.00
2019-01-21T00:36:23.700Z,0.00
2019-01-21T00:37:29.231Z,0.00
2019-01-21T00:39:27.707Z,0.00
2019-01-21T00:40:33.129Z,0.00
2019-01-21T00:42:31.602Z,0.00
2019-01-21T00:43:37.036Z,0.00
2019-01-21T00:45:35.435Z,0.00
2019-01-21T00:46:40.935Z,0.00
2019-01-21T00:48:39.420Z,0.00
2019-01-21T00:49:44.839Z,0.00
2019-01-21T00:51:43.320Z,0.00
2019-01-21T00:52:48.749Z,0.00
2019-01-21T00:54:47.141Z,0.00
2019-01-21T00:55:52.645Z,0.00
2019-01-21T00:57:51.030Z,0.00
2019-01-21T00:58:56.552Z,0.00
2019-01-21T01:00:54.949Z,0.00
2019-01-21T01:02:00.461Z,0.00
2019-01-21T01:03:58.851Z,0.00
2019-01-21T01:05:04.358Z,0.00
2019-01-21T01:07:02.741Z,0.00
2019-01-21T01:08:08.262Z,0.00
2019-01-21T01:10:06.666Z,0.00
2019-01-21T01:11:12.167Z,0.00
2019-01-21T01:13:10.551Z,0.00
2019-01-21T01:14:16.078Z,0.00
2019-01-21T01:16:14.481Z,0.00
2019-01-21T01:17:19.987Z,0.00
2019-01-21T01:19:18.388Z,0.00
2019-01-21T01:20:23.892Z,0.00
2019-01-21T01:22:22.277Z,0.00
2019-01-21T01:23:27.807Z,0.00
2019-01-21T01:25:26.198Z,0.00
2019-01-21T01:26:31.709Z,0.00
2019-01-21T01:28:30.126Z,0.00
2019-01-21T01:29:35.623Z,0.00
2019-01-21T01:31:34.093Z,0.00
2019-01-21T01:32:39.523Z,0.00
2019-01-21T01:34:38.007Z,0.00
2019-01-21T01:35:43.423Z,0.00
2019-01-21T01:37:41.813Z,0.00
2019-01-21T01:38:47.327Z,0.00
2019-01-21T01:40:45.744Z,0.00
2019-01-21T01:41:51.253Z,0.00
2019-01-21T01:43:49.723Z,0.00
2019-01-21T01:44:55.142Z,0.00
2019-01-21T01:46:53.522Z,0.00
2019-01-21T01:47:59.048Z,0.00
2019-01-21T01:49:57.536Z,0.00
2019-01-21T01:51:02.956Z,0.00
2019-01-21T01:53:01.333Z,0.00
2019-01-21T01:54:06.852Z,0.00
2019-01-21T01:56:05.347Z,0.00
2019-01-21T01:57:10.757Z,0.00
2019-01-21T01:59:09.242Z,0.00
2019-01-21T02:00:14.673Z,0.00
2019-01-21T02:02:13.043Z,0.00
2019-01-21T02:03:18.565Z,0.00
2019-01-21T02:05:16.970Z,0.00
2019-01-21T02:06:22.472Z,0.00
2019-01-21T02:08:20.941Z,0.00
2019-01-21T02:09:26.375Z,0.00
2019-01-21T02:11:24.775Z,0.00
2019-01-21T02:12:30.279Z,0.00
2019-01-21T02:14:28.691Z,0.00
2019-01-21T02:15:34.190Z,0.00
2019-01-21T02:17:32.574Z,0.00
2019-01-21T02:18:38.092Z,0.00
2019-01-21T02:20:36.577Z,0.00
2019-01-21T02:21:41.995Z,0.00
2019-01-21T02:23:40.381Z,0.00
2019-01-21T02:24:45.907Z,0.00
2019-01-21T02:26:44.298Z,0.00
2019-01-21T02:27:49.811Z,0.00
2019-01-21T02:29:48.293Z,0.00
2019-01-21T02:30:53.719Z,0.00
2019-01-21T02:32:52.098Z,0.00
2019-01-21T02:33:57.625Z,0.00
2019-01-21T02:35:56.026Z,0.00
2019-01-21T02:37:01.544Z,0.00
2019-01-21T02:38:59.918Z,0.00
2019-01-21T02:40:05.436Z,0.00
2019-01-21T02:42:03.831Z,0.00
2019-01-21T02:43:09.346Z,0.00
2019-01-21T02:45:08.806Z,0.00
2019-01-21T02:46:13.246Z,0.00
2019-01-21T02:48:11.636Z,0.00
2019-01-21T02:49:17.156Z,0.00
2019-01-21T02:51:15.641Z,0.00
2019-01-21T02:52:21.062Z,0.00
2019-01-21T02:54:19.441Z,0.00
2019-01-21T02:55:24.964Z,0.00
2019-01-21T02:57:23.458Z,0.00
2019-01-21T02:58:28.873Z,0.00
2019-01-21T03:00:27.342Z,0.00
2019-01-21T03:01:32.775Z,0.00
2019-01-21T03:03:31.266Z,0.00
2019-01-21T03:04:36.680Z,0.00
2019-01-21T03:06:35.106Z,0.00
2019-01-21T03:07:40.586Z,0.00
2019-01-21T03:09:38.983Z,0.00
2019-01-21T03:10:44.489Z,0.00
2019-01-21T03:12:42.905Z,0.00
2019-01-21T03:13:48.403Z,0.00
2019-01-21T03:15:46.780Z,0.00
2019-01-21T03:16:52.305Z,0.00
2019-01-21T03:18:50.699Z,0.00
2019-01-21T03:19:56.211Z,0.00
2019-01-21T03:21:54.817Z,0.00
2019-01-21T03:23:00.335Z,0.00
2019-01-21T03:24:58.739Z,0.00
2019-01-21T03:26:04.241Z,0.00
2019-01-21T03:28:02.622Z,0.00
2019-01-21T03:29:08.142Z,0.00
2019-01-21T03:31:06.553Z,0.00
2019-01-21T03:32:12.055Z,0.00
2019-01-21T03:34:10.464Z,0.00
2019-01-21T03:35:16.527Z,0.00
2019-01-21T03:37:14.331Z,0.00
2019-01-21T03:38:19.858Z,0.00
2019-01-21T03:40:19.381Z,0.00
2019-01-21T03:41:24.612Z,0.00
2019-01-21T03:43:23.027Z,0.00
2019-01-21T03:44:28.545Z,0.00
2019-01-21T03:46:26.943Z,0.00
2019-01-21T03:47:32.451Z,0.00
2019-01-21T03:49:30.831Z,0.00
2019-01-21T03:50:36.359Z,0.00
2019-01-21T03:52:34.760Z,0.00
2019-01-21T03:53:40.255Z,0.00
2019-01-21T03:55:38.646Z,0.00
2019-01-21T03:56:44.169Z,0.00
2019-01-21T03:58:42.568Z,0.00
2019-01-21T03:59:48.072Z,0.00
2019-01-21T04:01:46.468Z,0.00
2019-01-21T04:02:51.974Z,0.00
2019-01-21T04:04:50.353Z,0.00
2019-01-21T04:05:55.879Z,0.00
2019-01-21T04:07:54.280Z,0.00
2019-01-21T04:08:59.785Z,0.00
2019-01-21T04:10:58.168Z,0.00
2019-01-21T04:12:03.693Z,0.00
2019-01-21T04:14:02.084Z,0.00
2019-01-21T04:15:07.587Z,0.00
2019-01-21T04:17:06.069Z,0.00
2019-01-21T04:18:11.495Z,0.00
2019-01-21T04:20:09.891Z,0.00
2019-01-21T04:21:15.401Z,0.00
2019-01-21T04:23:13.823Z,0.00
2019-01-21T04:24:19.323Z,0.00
2019-01-21T04:26:17.798Z,0.00
2019-01-21T04:27:23.225Z,0.00
2019-01-21T04:29:21.612Z,0.00
2019-01-21T04:30:27.132Z,0.00
2019-01-21T04:32:25.511Z,0.00
2019-01-21T04:33:31.028Z,0.00
2019-01-21T04:35:29.420Z,0.00
2019-01-21T04:36:34.932Z,0.00
2019-01-21T04:38:33.317Z,0.00
2019-01-21T04:39:38.839Z,0.00
2019-01-21T04:41:37.466Z,0.00
2019-01-21T04:42:42.972Z,0.00
2019-01-21T04:44:41.350Z,0.00
2019-01-21T04:45:46.875Z,0.00
2019-01-21T04:47:45.278Z,0.00
2019-01-21T04:48:50.787Z,0.00
2019-01-21T04:50:49.175Z,0.00
2019-01-21T04:51:54.685Z,0.00
2019-01-21T04:53:53.066Z,0.00
2019-01-21T04:54:59.148Z,0.00
2019-01-21T04:56:57.012Z,0.00
2019-01-21T04:58:02.491Z,0.00
2019-01-21T05:00:00.881Z,0.00
2019-01-21T05:01:06.408Z,0.00
2019-01-21T05:03:04.797Z,0.00
2019-01-21T05:04:10.312Z,0.00
2019-01-21T05:06:09.276Z,0.00
2019-01-21T05:07:14.217Z,0.00
2019-01-21T05:09:12.605Z,0.00
2019-01-21T05:10:18.111Z,0.00
2019-01-21T05:12:16.547Z,0.00
2019-01-21T05:13:22.025Z,0.00
2019-01-21T05:15:21.248Z,0.00
2019-01-21T05:16:26.774Z,0.00
2019-01-21T05:18:25.165Z,0.00
2019-01-21T05:19:30.680Z,0.00
2019-01-21T05:21:29.050Z,0.00
2019-01-21T05:22:34.576Z,0.00
2019-01-21T05:24:33.833Z,0.00
2019-01-21T05:25:39.339Z,0.00
2019-01-21T05:27:37.729Z,0.00
2019-01-21T05:28:43.251Z,0.00
2019-01-21T05:30:41.741Z,0.00
2019-01-21T05:31:47.156Z,0.00
2019-01-21T05:33:45.764Z,0.00
2019-01-21T05:34:51.292Z,0.00
2019-01-21T05:36:49.693Z,0.00
2019-01-21T05:37:55.199Z,0.00
2019-01-21T05:39:53.612Z,0.00
2019-01-21T05:40:59.107Z,0.00
2019-01-21T05:42:57.578Z,0.00
2019-01-21T05:44:03.034Z,0.00
2019-01-21T05:46:01.511Z,0.00
2019-01-21T05:47:07.469Z,0.00
2019-01-21T05:49:05.307Z,0.00
2019-01-21T05:50:10.828Z,0.00
2019-01-21T05:52:09.314Z,0.00
2019-01-21T05:53:14.740Z,0.00
2019-01-21T05:55:13.114Z,0.00
2019-01-21T05:56:18.636Z,0.00
2019-01-21T05:58:17.039Z,0.00
2019-01-21T05:59:22.540Z,0.00
2019-01-21T06:01:20.930Z,0.00
2019-01-21T06:02:26.449Z,0.00
2019-01-21T06:04:24.914Z,0.00
2019-01-21T06:05:30.412Z,0.00
2019-01-21T06:07:28.793Z,0.00
2019-01-21T06:08:34.318Z,0.00
2019-01-21T06:10:32.717Z,0.00
2019-01-21T06:11:38.221Z,0.00
2019-01-21T06:13:36.643Z,0.00
2019-01-21T06:14:42.134Z,0.00
2019-01-21T06:16:40.519Z,0.00
2019-01-21T06:17:46.044Z,0.00
2019-01-21T06:19:44.441Z,0.00
2019-01-21T06:20:49.960Z,0.00
2019-01-21T06:22:48.334Z,0.00
2019-01-21T06:23:53.862Z,0.00
2019-01-21T06:25:52.256Z,0.00
2019-01-21T06:26:57.766Z,0.00
2019-01-21T06:28:56.240Z,0.00
2019-01-21T06:30:01.668Z,0.00
2019-01-21T06:32:00.070Z,0.00
2019-01-21T06:33:05.585Z,0.00
2019-01-21T06:35:04.000Z,0.00
2019-01-21T06:36:09.490Z,0.00
2019-01-21T06:38:07.967Z,0.00
2019-01-21T06:39:13.393Z,0.00
2019-01-21T06:41:11.883Z,0.00
2019-01-21T06:42:17.299Z,0.00
2019-01-21T06:44:15.692Z,0.00
2019-01-21T06:46:52.785Z,0.00
2019-01-21T06:47:58.287Z,0.00
2019-01-21T06:49:56.672Z,0.00
2019-01-21T06:51:02.193Z,4.00
2019-01-21T06:53:01.438Z,4.00
2019-01-21T06:54:06.957Z,4.00
2019-01-21T06:56:05.333Z,4.00
2019-01-21T06:57:10.867Z,4.00
2019-01-21T06:59:09.258Z,8.00
2019-01-21T07:00:14.773Z,8.00
2019-01-21T07:02:13.152Z,12.00
2019-01-21T07:03:18.673Z,12.00
2019-01-21T07:05:17.070Z,16.00
2019-01-21T07:06:22.582Z,16.00
2019-01-21T07:08:20.961Z,20.00
2019-01-21T07:09:26.482Z,24.00
2019-01-21T07:11:24.882Z,28.00
2019-01-21T07:12:30.386Z,32.00
2019-01-21T07:14:28.797Z,40.00
2019-01-21T07:15:34.288Z,44.00
2019-01-21T07:17:32.681Z,48.00
2019-01-21T07:18:38.196Z,52.00
2019-01-21T07:20:36.613Z,60.00
2019-01-21T07:21:42.108Z,64.00
2019-01-21T07:23:40.493Z,72.00
2019-01-21T07:24:46.008Z,80.00
2019-01-21T07:26:44.409Z,88.00
2019-01-21T07:27:49.916Z,96.00
2019-01-21T07:29:48.297Z,104.00
2019-01-21T07:30:53.826Z,108.00
2019-01-21T07:32:52.225Z,120.00
2019-01-21T07:33:57.736Z,124.00
2019-01-21T07:35:56.124Z,144.00
2019-01-21T07:37:01.641Z,152.00
2019-01-21T07:39:00.039Z,168.00
2019-01-21T07:40:05.550Z,176.00
2019-01-21T07:42:03.935Z,188.00
2019-01-21T07:43:09.457Z,192.00
2019-01-21T07:45:07.857Z,204.00
2019-01-21T07:46:13.368Z,224.00
2019-01-21T07:48:11.868Z,264.00
2019-01-21T07:49:17.728Z,288.00
2019-01-21T07:51:15.660Z,312.00
2019-01-21T07:52:21.184Z,312.00
2019-01-21T07:54:19.585Z,300.00
2019-01-21T07:55:25.087Z,296.00
2019-01-21T07:57:23.469Z,292.00
2019-01-21T07:58:28.991Z,296.00
2019-01-21T08:00:27.390Z,308.00
2019-01-21T08:01:32.899Z,316.00
2019-01-21T08:03:31.280Z,320.00
2019-01-21T08:04:36.806Z,320.00
2019-01-21T08:06:35.287Z,316.00
2019-01-21T08:07:40.711Z,316.00
2019-01-21T08:09:39.189Z,316.00
2019-01-21T08:10:44.622Z,324.00
2019-01-21T08:12:43.104Z,340.00
2019-01-21T08:13:48.533Z,348.00
2019-01-21T08:15:46.940Z,360.00
2019-01-21T08:16:52.439Z,364.00
2019-01-21T08:18:50.819Z,372.00
2019-01-21T08:19:56.340Z,376.00
2019-01-21T08:21:54.742Z,388.00
2019-01-21T08:23:00.247Z,396.00
2019-01-21T08:24:58.640Z,412.00
2019-01-21T08:26:04.157Z,428.00
2019-01-21T08:28:03.648Z,448.00
2019-01-21T08:29:08.064Z,464.00
2019-01-21T08:31:06.538Z,484.00
2019-01-21T08:32:11.977Z,496.00
2019-01-21T08:34:10.460Z,512.00
2019-01-21T08:35:15.879Z,516.00
2019-01-21T08:37:14.264Z,528.00
2019-01-21T08:38:19.788Z,540.00
2019-01-21T08:40:18.276Z,572.00
2019-01-21T08:41:23.700Z,592.00
2019-01-21T08:43:22.083Z,640.00
2019-01-21T08:44:27.604Z,664.00
2019-01-21T08:46:26.093Z,712.00
2019-01-21T08:47:31.510Z,740.00
2019-01-21T08:49:30.818Z,788.00
2019-01-21T08:50:35.418Z,812.00
2019-01-21T08:52:33.801Z,832.00
2019-01-21T08:53:39.323Z,836.00
2019-01-21T08:55:37.716Z,852.00
2019-01-21T08:56:43.239Z,860.00
2019-01-21T08:58:41.613Z,868.00
2019-01-21T08:59:47.130Z,872.00
2019-01-21T09:01:45.526Z,884.00
2019-01-21T09:02:51.035Z,892.00
2019-01-21T09:04:49.514Z,896.00
2019-01-21T09:05:54.947Z,904.00
2019-01-21T09:07:53.341Z,928.00
2019-01-21T09:08:58.855Z,940.00
2019-01-21T09:10:57.229Z,964.00
2019-01-21T09:12:02.751Z,964.00
2019-01-21T09:14:01.147Z,980.00
2019-01-21T09:15:06.663Z,984.00
2019-01-21T09:17:05.043Z,1000.00
2019-01-21T09:18:11.119Z,1012.00
2019-01-21T09:20:10.753Z,1032.00
2019-01-21T09:21:14.482Z,1036.00
2019-01-21T09:23:12.893Z,1048.00
2019-01-21T09:24:18.383Z,1060.00
2019-01-21T09:26:17.630Z,1084.00
2019-01-21T09:27:23.153Z,1104.00
2019-01-21T09:29:21.652Z,1160.00
2019-01-21T09:30:27.063Z,1200.00
2019-01-21T09:32:25.448Z,1288.00
2019-01-21T09:33:30.974Z,1332.00
2019-01-21T09:35:29.381Z,1380.00
2019-01-21T09:36:34.885Z,1352.00
2019-01-21T09:38:33.274Z,1252.00
2019-01-21T09:39:38.789Z,1188.00
2019-01-21T09:41:37.198Z,1160.00
2019-01-21T09:42:42.706Z,1160.00
2019-01-21T09:44:41.089Z,1188.00
2019-01-21T09:45:46.615Z,1200.00
2019-01-21T09:47:45.100Z,1240.00
2019-01-21T09:48:50.546Z,1264.00
2019-01-21T09:50:48.930Z,1324.00
2019-01-21T09:51:54.454Z,1364.00
2019-01-21T09:53:52.938Z,1440.00
2019-01-21T09:54:58.359Z,1468.00
2019-01-21T09:56:56.747Z,1508.00
2019-01-21T09:58:02.269Z,1516.00
2019-01-21T10:00:00.756Z,1492.00
2019-01-21T10:01:06.191Z,1452.00
2019-01-21T10:03:04.655Z,1396.00
2019-01-21T10:04:10.090Z,1392.00
2019-01-21T10:06:08.485Z,1404.00
2019-01-21T10:07:13.999Z,1404.00
2019-01-21T10:09:12.399Z,1344.00
2019-01-21T10:10:17.911Z,1324.00
2019-01-21T10:12:16.296Z,1552.00
2019-01-21T10:13:21.821Z,1164.00
2019-01-21T10:15:20.217Z,980.00
2019-01-21T10:16:25.731Z,928.00
2019-01-21T10:18:24.113Z,876.00
2019-01-21T10:19:29.640Z,844.00
2019-01-21T10:21:28.041Z,848.00
2019-01-21T10:22:33.555Z,836.00
2019-01-21T10:24:32.187Z,820.00
2019-01-21T10:25:37.685Z,816.00
2019-01-21T10:27:36.070Z,824.00
2019-01-21T10:28:41.691Z,840.00
2019-01-21T10:30:40.084Z,896.00
2019-01-21T10:31:45.501Z,932.00
2019-01-21T10:33:43.884Z,960.00
2019-01-21T10:34:49.408Z,948.00
2019-01-21T10:36:47.904Z,924.00
2019-01-21T10:37:53.876Z,912.00
2019-01-21T10:39:51.706Z,908.00
2019-01-21T10:40:57.232Z,916.00
2019-01-21T10:42:55.633Z,944.00
2019-01-21T10:44:01.146Z,960.00
2019-01-21T10:45:59.532Z,948.00
2019-01-21T10:47:05.053Z,924.00
2019-01-21T10:49:03.452Z,940.00
2019-01-21T10:50:08.962Z,1000.00
2019-01-21T10:52:07.382Z,1116.00
2019-01-21T10:53:12.872Z,1136.00
2019-01-21T10:55:11.258Z,1108.00
2019-01-21T10:56:16.797Z,1032.00
2019-01-21T10:58:15.188Z,924.00
2019-01-21T10:59:20.695Z,912.00
2019-01-21T11:01:19.164Z,836.00
2019-01-21T11:02:24.604Z,728.00
2019-01-21T11:04:23.003Z,612.00
2019-01-21T11:05:28.513Z,560.00
2019-01-21T11:07:26.898Z,528.00
2019-01-21T11:10:03.993Z,516.00
2019-01-21T11:11:09.507Z,536.00
2019-01-21T11:13:07.977Z,528.00
2019-01-21T11:14:13.432Z,548.00
2019-01-21T11:16:11.816Z,560.00
2019-01-21T11:17:17.332Z,584.00
2019-01-21T11:19:15.709Z,660.00
2019-01-21T11:20:21.241Z,668.00
2019-01-21T11:22:19.631Z,624.00
2019-01-21T11:23:25.141Z,608.00
2019-01-21T11:25:23.539Z,568.00
2019-01-21T11:26:29.051Z,556.00
2019-01-21T11:28:27.431Z,568.00
2019-01-21T11:29:32.961Z,588.00
2019-01-21T11:31:31.351Z,624.00
2019-01-21T11:32:36.868Z,612.00
2019-01-21T11:34:36.100Z,580.00
2019-01-21T11:35:41.626Z,576.00
2019-01-21T11:37:40.112Z,584.00
2019-01-21T11:38:45.540Z,584.00
2019-01-21T11:40:43.924Z,584.00
2019-01-21T11:41:49.450Z,620.00
2019-01-21T11:43:47.937Z,736.00
2019-01-21T11:44:53.360Z,800.00
2019-01-21T11:46:51.767Z,868.00
2019-01-21T11:47:57.271Z,880.00
2019-01-21T11:49:55.659Z,828.00
2019-01-21T11:51:01.181Z,824.00
2019-01-21T11:52:59.587Z,868.00
2019-01-21T11:54:05.100Z,848.00
2019-01-21T11:56:03.482Z,804.00
2019-01-21T11:57:09.007Z,792.00
2019-01-21T11:59:07.415Z,788.00
2019-01-21T12:00:12.925Z,808.00
2019-01-21T12:02:11.314Z,872.00
2019-01-21T12:03:23.311Z,944.00
2019-01-21T12:05:15.242Z,1040.00
2019-01-21T12:06:20.745Z,1136.00
2019-01-21T12:08:19.168Z,1088.00
2019-01-21T12:09:24.662Z,984.00
2019-01-21T12:11:23.157Z,800.00
2019-01-21T12:12:28.567Z,756.00
2019-01-21T12:14:26.973Z,800.00
2019-01-21T12:15:32.484Z,880.00
2019-01-21T12:17:30.870Z,1040.00
2019-01-21T12:18:36.392Z,1140.00
2019-01-21T12:20:34.788Z,1108.00
2019-01-21T12:21:40.299Z,1100.00
2019-01-21T12:23:38.691Z,1100.00
2019-01-21T12:24:44.215Z,1100.00
2019-01-21T12:26:42.696Z,1048.00
2019-01-21T12:27:48.127Z,1004.00
2019-01-21T12:29:46.515Z,896.00
2019-01-21T12:30:52.038Z,912.00
2019-01-21T12:32:50.442Z,1000.00
2019-01-21T12:33:55.951Z,992.00
2019-01-21T12:35:54.945Z,920.00
2019-01-21T12:36:59.863Z,828.00
2019-01-21T12:38:58.251Z,928.00
2019-01-21T12:40:03.777Z,1016.00
2019-01-21T12:42:02.179Z,1196.00
2019-01-21T12:43:07.693Z,1252.00
2019-01-21T12:45:06.075Z,1204.00
2019-01-21T12:46:11.600Z,1220.00
2019-01-21T12:48:10.002Z,1164.00
2019-01-21T12:49:15.527Z,1048.00
2019-01-21T12:51:13.908Z,916.00
2019-01-21T12:52:19.821Z,864.00
2019-01-21T12:54:18.425Z,756.00
2019-01-21T12:55:23.339Z,688.00
2019-01-21T12:57:21.851Z,656.00
2019-01-21T12:58:27.263Z,668.00
2019-01-21T13:00:25.649Z,720.00
2019-01-21T13:01:31.169Z,756.00
2019-01-21T13:03:29.566Z,848.00
2019-01-21T13:04:35.083Z,896.00
2019-01-21T13:06:33.463Z,948.00
2019-01-21T13:07:38.988Z,940.00
2019-01-21T13:09:37.394Z,968.00
2019-01-21T13:10:42.902Z,968.00
2019-01-21T13:12:41.295Z,848.00
2019-01-21T13:13:46.825Z,780.00
2019-01-21T13:15:45.220Z,668.00
2019-01-21T13:16:50.726Z,624.00
2019-01-21T13:18:49.207Z,568.00
2019-01-21T13:19:54.636Z,572.00
2019-01-21T13:21:53.034Z,692.00
2019-01-21T13:22:58.548Z,780.00
2019-01-21T13:24:56.963Z,1072.00
2019-01-21T13:26:02.463Z,1120.00
2019-01-21T13:28:00.846Z,1128.00
2019-01-21T13:29:06.370Z,1076.00
2019-01-21T13:31:04.865Z,1036.00
2019-01-21T13:32:10.275Z,1092.00
2019-01-21T13:34:08.664Z,1144.00
2019-01-21T13:35:14.191Z,1080.00
2019-01-21T13:37:12.593Z,1132.00
2019-01-21T13:38:18.098Z,1140.00
2019-01-21T13:40:16.487Z,972.00
2019-01-21T13:41:22.016Z,1016.00
2019-01-21T13:43:20.409Z,1000.00
2019-01-21T13:44:25.922Z,988.00
2019-01-21T13:46:24.304Z,956.00
2019-01-21T13:47:29.830Z,956.00
2019-01-21T13:49:28.231Z,976.00
2019-01-21T13:50:37.178Z,1000.00
2019-01-21T13:52:32.157Z,1008.00
2019-01-21T13:53:37.651Z,1000.00
2019-01-21T13:55:36.120Z,872.00
2019-01-21T13:56:41.649Z,876.00
2019-01-21T13:58:40.046Z,736.00
2019-01-21T13:59:45.559Z,748.00
2019-01-21T14:01:43.967Z,796.00
2019-01-21T14:02:49.464Z,788.00
2019-01-21T14:04:47.886Z,772.00
2019-01-21T14:05:53.375Z,772.00
2019-01-21T14:07:51.762Z,768.00
2019-01-21T14:08:57.291Z,748.00
2019-01-21T14:10:55.697Z,684.00
2019-01-21T14:12:01.199Z,684.00
2019-01-21T14:13:59.580Z,644.00
2019-01-21T14:15:05.105Z,628.00
2019-01-21T14:17:03.517Z,628.00
2019-01-21T14:18:09.014Z,628.00
2019-01-21T14:20:07.400Z,644.00
2019-01-21T14:21:12.925Z,696.00
2019-01-21T14:23:11.341Z,844.00
2019-01-21T14:24:16.836Z,908.00
2019-01-21T14:26:16.067Z,892.00
2019-01-21T14:27:21.593Z,824.00
2019-01-21T14:29:19.994Z,728.00
2019-01-21T14:30:25.505Z,664.00
2019-01-21T14:32:23.893Z,588.00
2019-01-21T14:33:29.420Z,536.00
2019-01-21T14:35:27.815Z,432.00
2019-01-21T14:36:33.333Z,448.00
2019-01-21T14:38:32.311Z,464.00
2019-01-21T14:39:37.240Z,452.00
2019-01-21T14:41:35.648Z,496.00
2019-01-21T14:42:41.172Z,484.00
2019-01-21T14:44:39.565Z,344.00
2019-01-21T14:45:45.064Z,300.00
2019-01-21T14:47:43.478Z,292.00
2019-01-21T14:48:48.980Z,320.00
2019-01-21T14:50:50.505Z,352.00
2019-01-21T14:51:52.891Z,352.00
2019-01-21T14:53:51.378Z,276.00
2019-01-21T14:54:56.819Z,248.00
2019-01-21T14:56:55.200Z,232.00
2019-01-21T14:58:00.735Z,204.00
2019-01-21T14:59:59.111Z,172.00
2019-01-21T15:01:04.649Z,160.00
2019-01-21T15:03:03.043Z,156.00
2019-01-21T15:04:08.531Z,160.00
2019-01-21T15:06:06.916Z,156.00
2019-01-21T15:07:12.477Z,160.00
2019-01-21T15:09:10.843Z,168.00
2019-01-21T15:10:16.379Z,176.00
2019-01-21T15:12:14.732Z,188.00
2019-01-21T15:13:20.288Z,192.00
2019-01-21T15:15:18.684Z,188.00
2019-01-21T15:16:24.171Z,172.00
2019-01-21T15:18:22.595Z,148.00
2019-01-21T15:19:28.088Z,136.00
2019-01-21T15:21:27.336Z,128.00
2019-01-21T15:22:32.874Z,124.00
2019-01-21T15:24:31.313Z,124.00
2019-01-21T15:25:36.873Z,116.00
2019-01-21T15:27:35.154Z,104.00
2019-01-21T15:28:40.791Z,96.00
2019-01-21T15:30:39.085Z,80.00
2019-01-21T15:31:44.686Z,80.00
2019-01-21T15:33:42.979Z,68.00
2019-01-21T15:34:48.524Z,60.00
2019-01-21T15:36:47.381Z,52.00
2019-01-21T15:37:52.418Z,48.00
2019-01-21T15:39:50.866Z,40.00
2019-01-21T15:40:56.381Z,40.00
2019-01-21T15:42:54.793Z,36.00
2019-01-21T15:44:00.321Z,28.00
2019-01-21T15:45:58.706Z,28.00
2019-01-21T15:47:04.195Z,24.00
2019-01-21T15:49:02.542Z,20.00
2019-01-21T15:50:08.051Z,16.00
2019-01-21T15:52:06.463Z,12.00
2019-01-21T15:53:11.966Z,12.00
2019-01-21T15:55:10.345Z,8.00
2019-01-21T15:56:15.886Z,8.00
2019-01-21T15:58:18.934Z,8.00
2019-01-21T15:59:19.793Z,4.00
2019-01-21T16:01:18.159Z,0.00
2019-01-21T16:02:23.705Z,4.00
2019-01-21T16:04:22.102Z,4.00
2019-01-21T16:05:27.601Z,0.00
2019-01-21T16:07:25.998Z,4.00
2019-01-21T16:08:31.528Z,0.00
2019-01-21T16:10:29.920Z,0.00
2019-01-21T16:11:35.439Z,0.00
2019-01-21T16:13:33.850Z,0.00
2019-01-21T16:14:39.342Z,0.00
2019-01-21T16:16:37.735Z,0.00
2019-01-21T16:17:43.257Z,0.00
2019-01-21T16:19:41.657Z,0.00
2019-01-21T16:20:47.171Z,0.00
2019-01-21T16:22:45.562Z,0.00
2019-01-21T16:23:51.092Z,0.00
2019-01-21T16:25:49.479Z,0.00
2019-01-21T16:26:54.990Z,0.00
2019-01-21T16:28:53.381Z,0.00
2019-01-21T16:29:58.898Z,0.00
2019-01-21T16:31:57.310Z,0.00
2019-01-21T16:33:02.808Z,0.00
2019-01-21T16:35:01.449Z,0.00
2019-01-21T16:36:06.951Z,0.00
2019-01-21T16:38:05.333Z,0.00
2019-01-21T16:39:10.857Z,0.00
2019-01-21T16:41:09.271Z,0.00
2019-01-21T16:42:14.764Z,0.00
2019-01-21T16:44:13.152Z,0.00
2019-01-21T16:45:18.680Z,0.00
2019-01-21T16:47:17.080Z,0.00
2019-01-21T16:48:22.639Z,0.00
2019-01-21T16:50:20.979Z,0.00
2019-01-21T16:51:26.520Z,0.00
2019-01-21T16:53:24.895Z,0.00
2019-01-21T16:54:30.406Z,0.00
2019-01-21T16:56:28.823Z,0.00
2019-01-21T16:57:34.327Z,0.00
2019-01-21T16:59:32.706Z,0.00
2019-01-21T17:00:38.234Z,0.00
2019-01-21T17:02:36.629Z,0.00
2019-01-21T17:03:42.141Z,0.00
2019-01-21T17:05:40.519Z,0.00
2019-01-21T17:06:46.047Z,0.00
2019-01-21T17:08:44.443Z,0.00
2019-01-21T17:09:49.955Z,0.00
2019-01-21T17:11:48.353Z,0.00
2019-01-21T17:12:53.860Z,0.00
2019-01-21T17:14:57.423Z,0.00
2019-01-21T17:15:57.775Z,0.00
2019-01-21T17:17:56.171Z,0.00
2019-01-21T17:19:01.679Z,0.00
2019-01-21T17:21:00.067Z,0.00
2019-01-21T17:22:05.586Z,0.00
2019-01-21T17:24:03.991Z,0.00
2019-01-21T17:25:09.497Z,0.00
2019-01-21T17:27:07.985Z,0.00
2019-01-21T17:28:13.408Z,0.00
2019-01-21T17:30:11.785Z,0.00
2019-01-21T17:31:17.319Z,0.00
2019-01-21T17:33:15.712Z,0.00
2019-01-21T17:34:21.221Z,0.00
2019-01-21T17:36:19.602Z,0.00
2019-01-21T17:37:25.128Z,0.00
2019-01-21T17:39:23.523Z,0.00
2019-01-21T17:40:29.039Z,0.00
2019-01-21T17:42:27.432Z,0.00
2019-01-21T17:43:33.257Z,0.00
2019-01-21T17:45:31.330Z,0.00
2019-01-21T17:46:36.859Z,0.00
2019-01-21T17:48:35.254Z,0.00
2019-01-21T17:49:40.759Z,0.00
2019-01-21T17:51:39.155Z,0.00
2019-01-21T17:52:44.674Z,0.00
2019-01-21T17:54:43.087Z,0.00
2019-01-21T17:55:48.592Z,0.00
2019-01-21T17:57:46.991Z,0.00
2019-01-21T17:58:52.499Z,0.00
2019-01-21T18:00:50.994Z,0.00
2019-01-21T18:01:56.418Z,0.00
2019-01-21T18:03:54.809Z,0.00
2019-01-21T18:05:00.329Z,0.00
2019-01-21T18:06:58.726Z,0.00
2019-01-21T18:08:04.232Z,0.00
2019-01-21T18:10:02.623Z,0.00
2019-01-21T18:11:08.142Z,0.00
2019-01-21T18:13:06.540Z,0.00
2019-01-21T18:14:12.056Z,0.00
2019-01-21T18:16:10.525Z,0.00
2019-01-21T18:17:15.956Z,0.00
2019-01-21T18:19:14.356Z,0.00
2019-01-21T18:20:19.874Z,0.00
2019-01-21T18:22:19.122Z,0.00
2019-01-21T18:23:24.631Z,0.00
2019-01-21T18:25:23.016Z,0.00
2019-01-21T18:26:28.539Z,0.00
2019-01-21T18:28:26.938Z,0.00
2019-01-21T18:29:32.454Z,0.00
2019-01-21T18:31:30.837Z,0.00
2019-01-21T18:32:36.355Z,0.00
2019-01-21T18:34:34.756Z,0.00
2019-01-21T18:35:40.265Z,0.00
2019-01-21T18:37:38.665Z,0.00
2019-01-21T18:38:44.178Z,0.00
2019-01-21T18:40:42.560Z,0.00
2019-01-21T18:41:48.087Z,0.00
2019-01-21T18:43:46.484Z,0.00
2019-01-21T18:44:51.995Z,0.00
2019-01-21T18:46:50.385Z,0.00
2019-01-21T18:47:55.909Z,0.00
2019-01-21T18:49:54.301Z,0.00
2019-01-21T18:50:59.811Z,0.00
2019-01-21T18:52:58.210Z,0.00
2019-01-21T18:54:03.732Z,0.00
2019-01-21T18:56:02.105Z,0.00
2019-01-21T18:57:07.628Z,0.00
2019-01-21T18:59:06.038Z,0.00
2019-01-21T19:00:11.544Z,0.00
2019-01-21T19:02:09.929Z,0.00
2019-01-21T19:03:15.450Z,0.00
2019-01-21T19:05:13.847Z,0.00
2019-01-21T19:06:19.373Z,0.00
2019-01-21T19:08:18.605Z,0.00
2019-01-21T19:09:24.119Z,0.00
2019-01-21T19:11:22.501Z,0.00
2019-01-21T19:12:28.025Z,0.00
2019-01-21T19:14:26.664Z,0.00
2019-01-21T19:15:32.173Z,0.00
2019-01-21T19:17:30.555Z,0.00
2019-01-21T19:18:36.079Z,0.00
2019-01-21T19:20:34.474Z,0.00
2019-01-21T19:21:39.992Z,0.00
2019-01-21T19:23:38.390Z,0.00
2019-01-21T19:24:43.904Z,0.00
2019-01-21T19:26:42.289Z,0.00
2019-01-21T19:27:48.010Z,0.00
2019-01-21T19:29:46.205Z,0.00
2019-01-21T19:30:51.752Z,0.00
2019-01-21T19:32:50.106Z,0.00
2019-01-21T19:33:55.631Z,0.00
2019-01-21T19:35:54.029Z,0.00
2019-01-21T19:36:59.537Z,0.00
2019-01-21T19:38:57.934Z,0.00
2019-01-21T19:40:03.444Z,0.00
2019-01-21T19:42:01.827Z,0.00
2019-01-21T19:43:07.352Z,0.00
2019-01-21T19:45:05.751Z,0.00
2019-01-21T19:46:11.264Z,0.00
2019-01-21T19:48:09.694Z,0.00